sensor_id;sensor_type;location;lat;lon;timestamp;temperature;humidity
45785;DHT22;31489;51.404;5.474;2022-09-01T00:01:32;23.10;41.10
45785;DHT22;31489;51.404;5.474;2022-09-01T00:03:58;23.10;40.90
45785;DHT22;31489;51.404;5.474;2022-09-01T00:06:30;23.00;40.70
45785;DHT22;31489;51.404;5.474;2022-09-01T00:09:02;23.00;40.80
45785;DHT22;31489;51.404;5.474;2022-09-01T00:11:29;22.90;40.80
45785;DHT22;31489;51.404;5.474;2022-09-01T00:13:56;22.90;40.90
45785;DHT22;31489;51.404;5.474;2022-09-01T00:16:22;22.80;40.70
45785;DHT22;31489;51.404;5.474;2022-09-01T00:18:53;22.80;40.60
45785;DHT22;31489;51.404;5.474;2022-09-01T00:21:22;22.80;40.70
45785;DHT22;31489;51.404;5.474;2022-09-01T00:23:48;22.70;40.80
45785;DHT22;31489;51.404;5.474;2022-09-01T00:26:15;22.70;40.70
45785;DHT22;31489;51.404;5.474;2022-09-01T00:28:41;22.70;40.80
45785;DHT22;31489;51.404;5.474;2022-09-01T00:31:07;22.60;40.60
45785;DHT22;31489;51.404;5.474;2022-09-01T00:33:37;22.60;40.70
45785;DHT22;31489;51.404;5.474;2022-09-01T00:36:04;22.60;40.90
45785;DHT22;31489;51.404;5.474;2022-09-01T00:38:30;22.50;40.80
45785;DHT22;31489;51.404;5.474;2022-09-01T00:40:57;22.50;40.80
45785;DHT22;31489;51.404;5.474;2022-09-01T00:43:37;22.50;40.90
45785;DHT22;31489;51.404;5.474;2022-09-01T00:46:08;22.40;40.90
45785;DHT22;31489;51.404;5.474;2022-09-01T00:48:35;22.40;40.90
45785;DHT22;31489;51.404;5.474;2022-09-01T00:51:02;22.40;40.90
45785;DHT22;31489;51.404;5.474;2022-09-01T00:53:28;22.30;41.00
45785;DHT22;31489;51.404;5.474;2022-09-01T00:55:54;22.20;41.10
45785;DHT22;31489;51.404;5.474;2022-09-01T00:58:20;22.20;41.20
45785;DHT22;31489;51.404;5.474;2022-09-01T01:00:47;22.20;41.40
45785;DHT22;31489;51.404;5.474;2022-09-01T01:03:14;22.10;42.00
45785;DHT22;31489;51.404;5.474;2022-09-01T01:05:43;22.10;41.50
45785;DHT22;31489;51.404;5.474;2022-09-01T01:08:29;22.10;41.50
45785;DHT22;31489;51.404;5.474;2022-09-01T01:11:18;22.10;41.70
45785;DHT22;31489;51.404;5.474;2022-09-01T01:13:54;22.00;41.60
45785;DHT22;31489;51.404;5.474;2022-09-01T01:16:22;22.00;41.90
45785;DHT22;31489;51.404;5.474;2022-09-01T01:18:49;21.90;41.70
45785;DHT22;31489;51.404;5.474;2022-09-01T01:21:34;21.90;41.90
45785;DHT22;31489;51.404;5.474;2022-09-01T01:24:31;21.90;42.10
45785;DHT22;31489;51.404;5.474;2022-09-01T01:26:58;21.80;42.10
45785;DHT22;31489;51.404;5.474;2022-09-01T01:29:33;21.80;42.10
45785;DHT22;31489;51.404;5.474;2022-09-01T01:31:58;21.70;42.30
45785;DHT22;31489;51.404;5.474;2022-09-01T01:34:25;21.70;42.30
45785;DHT22;31489;51.404;5.474;2022-09-01T01:36:51;21.70;42.60
45785;DHT22;31489;51.404;5.474;2022-09-01T01:39:20;21.60;42.80
45785;DHT22;31489;51.404;5.474;2022-09-01T01:41:47;21.60;43.10
45785;DHT22;31489;51.404;5.474;2022-09-01T01:44:19;21.60;43.20
45785;DHT22;31489;51.404;5.474;2022-09-01T01:46:47;21.60;43.30
45785;DHT22;31489;51.404;5.474;2022-09-01T01:49:15;21.50;43.40
45785;DHT22;31489;51.404;5.474;2022-09-01T01:51:44;21.50;44.20
45785;DHT22;31489;51.404;5.474;2022-09-01T01:54:12;21.40;43.50
45785;DHT22;31489;51.404;5.474;2022-09-01T01:56:38;21.40;43.70
45785;DHT22;31489;51.404;5.474;2022-09-01T01:59:07;21.40;43.90
45785;DHT22;31489;51.404;5.474;2022-09-01T02:01:34;21.30;44.10
45785;DHT22;31489;51.404;5.474;2022-09-01T02:04:01;21.30;44.10
45785;DHT22;31489;51.404;5.474;2022-09-01T02:06:32;21.30;44.30
45785;DHT22;31489;51.404;5.474;2022-09-01T02:08:59;21.20;44.60
45785;DHT22;31489;51.404;5.474;2022-09-01T02:11:29;21.20;44.50
45785;DHT22;31489;51.404;5.474;2022-09-01T02:13:58;21.20;44.70
45785;DHT22;31489;51.404;5.474;2022-09-01T02:16:27;21.10;44.80
45785;DHT22;31489;51.404;5.474;2022-09-01T02:18:53;21.10;45.00
45785;DHT22;31489;51.404;5.474;2022-09-01T02:21:21;21.10;45.20
45785;DHT22;31489;51.404;5.474;2022-09-01T02:23:52;21.00;45.20
45785;DHT22;31489;51.404;5.474;2022-09-01T02:26:24;21.00;45.50
45785;DHT22;31489;51.404;5.474;2022-09-01T02:28:52;21.00;45.40
45785;DHT22;31489;51.404;5.474;2022-09-01T02:31:18;21.00;45.60
45785;DHT22;31489;51.404;5.474;2022-09-01T02:33:44;20.90;45.50
45785;DHT22;31489;51.404;5.474;2022-09-01T02:36:14;20.90;45.60
45785;DHT22;31489;51.404;5.474;2022-09-01T02:38:41;20.80;45.60
45785;DHT22;31489;51.404;5.474;2022-09-01T02:41:11;20.80;45.50
45785;DHT22;31489;51.404;5.474;2022-09-01T02:43:41;20.80;45.60
45785;DHT22;31489;51.404;5.474;2022-09-01T02:46:11;20.80;45.60
45785;DHT22;31489;51.404;5.474;2022-09-01T02:48:39;20.70;45.60
45785;DHT22;31489;51.404;5.474;2022-09-01T02:51:08;20.70;45.60
45785;DHT22;31489;51.404;5.474;2022-09-01T02:53:35;20.70;45.60
45785;DHT22;31489;51.404;5.474;2022-09-01T02:56:03;20.70;45.60
45785;DHT22;31489;51.404;5.474;2022-09-01T02:58:33;20.60;45.60
45785;DHT22;31489;51.404;5.474;2022-09-01T03:00:59;20.60;45.70
45785;DHT22;31489;51.404;5.474;2022-09-01T03:03:25;20.60;45.70
45785;DHT22;31489;51.404;5.474;2022-09-01T03:05:51;20.60;45.70
45785;DHT22;31489;51.404;5.474;2022-09-01T03:08:22;20.60;45.90
45785;DHT22;31489;51.404;5.474;2022-09-01T03:10:52;20.50;45.90
45785;DHT22;31489;51.404;5.474;2022-09-01T03:13:22;20.50;46.00
45785;DHT22;31489;51.404;5.474;2022-09-01T03:15:49;20.50;46.10
45785;DHT22;31489;51.404;5.474;2022-09-01T03:18:16;20.50;46.00
45785;DHT22;31489;51.404;5.474;2022-09-01T03:20:44;20.40;46.00
45785;DHT22;31489;51.404;5.474;2022-09-01T03:23:13;20.50;46.10
45785;DHT22;31489;51.404;5.474;2022-09-01T03:25:42;20.40;46.20
45785;DHT22;31489;51.404;5.474;2022-09-01T03:28:08;20.40;46.20
45785;DHT22;31489;51.404;5.474;2022-09-01T03:30:36;20.40;46.40
45785;DHT22;31489;51.404;5.474;2022-09-01T03:33:07;20.30;47.00
45785;DHT22;31489;51.404;5.474;2022-09-01T03:35:33;20.30;46.40
45785;DHT22;31489;51.404;5.474;2022-09-01T03:37:59;20.30;46.50
45785;DHT22;31489;51.404;5.474;2022-09-01T03:40:28;20.30;46.50
45785;DHT22;31489;51.404;5.474;2022-09-01T03:42:58;20.30;46.60
45785;DHT22;31489;51.404;5.474;2022-09-01T03:45:24;20.20;46.50
45785;DHT22;31489;51.404;5.474;2022-09-01T03:47:51;20.20;46.60
45785;DHT22;31489;51.404;5.474;2022-09-01T03:50:18;20.20;46.80
45785;DHT22;31489;51.404;5.474;2022-09-01T03:52:57;20.20;46.80
45785;DHT22;31489;51.404;5.474;2022-09-01T03:55:29;20.10;47.10
45785;DHT22;31489;51.404;5.474;2022-09-01T03:58:01;20.10;47.10
45785;DHT22;31489;51.404;5.474;2022-09-01T04:00:46;20.10;47.20
45785;DHT22;31489;51.404;5.474;2022-09-01T04:03:13;20.10;47.20
45785;DHT22;31489;51.404;5.474;2022-09-01T04:05:43;20.10;47.20
45785;DHT22;31489;51.404;5.474;2022-09-01T04:08:10;20.10;47.50
45785;DHT22;31489;51.404;5.474;2022-09-01T04:10:47;20.00;47.40
45785;DHT22;31489;51.404;5.474;2022-09-01T04:13:21;20.00;47.80
45785;DHT22;31489;51.404;5.474;2022-09-01T04:15:47;20.00;47.70
45785;DHT22;31489;51.404;5.474;2022-09-01T04:18:15;20.00;47.70
45785;DHT22;31489;51.404;5.474;2022-09-01T04:20:56;20.00;47.80
45785;DHT22;31489;51.404;5.474;2022-09-01T04:23:24;20.00;48.00
45785;DHT22;31489;51.404;5.474;2022-09-01T04:25:58;19.90;47.80
45785;DHT22;31489;51.404;5.474;2022-09-01T04:28:30;19.90;47.40
45785;DHT22;31489;51.404;5.474;2022-09-01T04:30:58;19.90;47.70
45785;DHT22;31489;51.404;5.474;2022-09-01T04:33:25;19.90;48.50
45785;DHT22;31489;51.404;5.474;2022-09-01T04:35:55;19.90;48.00
45785;DHT22;31489;51.404;5.474;2022-09-01T04:38:24;19.90;48.00
45785;DHT22;31489;51.404;5.474;2022-09-01T04:40:51;19.90;48.20
45785;DHT22;31489;51.404;5.474;2022-09-01T04:43:17;19.90;48.20
45785;DHT22;31489;51.404;5.474;2022-09-01T04:45:45;19.90;48.60
45785;DHT22;31489;51.404;5.474;2022-09-01T04:48:11;19.90;49.10
45785;DHT22;31489;51.404;5.474;2022-09-01T04:50:39;19.80;48.60
45785;DHT22;31489;51.404;5.474;2022-09-01T04:53:05;19.80;48.80
45785;DHT22;31489;51.404;5.474;2022-09-01T04:55:31;19.80;48.90
45785;DHT22;31489;51.404;5.474;2022-09-01T04:57:59;19.80;48.80
45785;DHT22;31489;51.404;5.474;2022-09-01T05:00:26;19.90;48.90
45785;DHT22;31489;51.404;5.474;2022-09-01T05:02:58;19.90;48.90
45785;DHT22;31489;51.404;5.474;2022-09-01T05:05:34;19.90;49.00
45785;DHT22;31489;51.404;5.474;2022-09-01T05:08:10;19.90;49.50
45785;DHT22;31489;51.404;5.474;2022-09-01T05:10:41;19.90;48.80
45785;DHT22;31489;51.404;5.474;2022-09-01T05:13:12;19.90;48.90
45785;DHT22;31489;51.404;5.474;2022-09-01T05:15:40;19.90;49.00
45785;DHT22;31489;51.404;5.474;2022-09-01T05:18:18;19.90;48.90
45785;DHT22;31489;51.404;5.474;2022-09-01T05:20:52;19.90;49.00
45785;DHT22;31489;51.404;5.474;2022-09-01T05:23:19;19.90;48.70
45785;DHT22;31489;51.404;5.474;2022-09-01T05:25:47;19.90;48.90
45785;DHT22;31489;51.404;5.474;2022-09-01T05:28:15;19.90;49.00
45785;DHT22;31489;51.404;5.474;2022-09-01T05:30:42;19.90;49.10
45785;DHT22;31489;51.404;5.474;2022-09-01T05:33:09;19.90;49.00
45785;DHT22;31489;51.404;5.474;2022-09-01T05:35:46;19.90;49.10
45785;DHT22;31489;51.404;5.474;2022-09-01T05:38:16;19.90;49.30
45785;DHT22;31489;51.404;5.474;2022-09-01T05:40:44;19.90;49.10
45785;DHT22;31489;51.404;5.474;2022-09-01T05:43:19;19.90;49.20
45785;DHT22;31489;51.404;5.474;2022-09-01T05:45:46;19.90;49.10
45785;DHT22;31489;51.404;5.474;2022-09-01T05:48:12;19.90;49.20
45785;DHT22;31489;51.404;5.474;2022-09-01T05:50:46;19.90;49.30
45785;DHT22;31489;51.404;5.474;2022-09-01T05:53:14;19.90;49.00
45785;DHT22;31489;51.404;5.474;2022-09-01T05:55:46;19.90;49.20
45785;DHT22;31489;51.404;5.474;2022-09-01T05:58:15;19.90;49.50
45785;DHT22;31489;51.404;5.474;2022-09-01T06:00:45;19.90;49.40
45785;DHT22;31489;51.404;5.474;2022-09-01T06:03:14;19.90;49.50
45785;DHT22;31489;51.404;5.474;2022-09-01T06:05:42;19.90;50.00
45785;DHT22;31489;51.404;5.474;2022-09-01T06:08:13;19.90;49.70
45785;DHT22;31489;51.404;5.474;2022-09-01T06:10:40;19.90;49.70
45785;DHT22;31489;51.404;5.474;2022-09-01T06:13:09;19.90;49.50
45785;DHT22;31489;51.404;5.474;2022-09-01T06:15:36;19.90;50.00
45785;DHT22;31489;51.404;5.474;2022-09-01T06:18:06;19.90;49.80
45785;DHT22;31489;51.404;5.474;2022-09-01T06:20:33;20.00;49.80
45785;DHT22;31489;51.404;5.474;2022-09-01T06:23:03;20.00;49.80
45785;DHT22;31489;51.404;5.474;2022-09-01T06:25:36;20.00;49.80
45785;DHT22;31489;51.404;5.474;2022-09-01T06:28:02;20.00;50.10
45785;DHT22;31489;51.404;5.474;2022-09-01T06:30:29;20.00;50.00
45785;DHT22;31489;51.404;5.474;2022-09-01T06:32:55;20.00;50.10
45785;DHT22;31489;51.404;5.474;2022-09-01T06:35:22;20.10;50.40
45785;DHT22;31489;51.404;5.474;2022-09-01T06:37:55;20.10;50.00
45785;DHT22;31489;51.404;5.474;2022-09-01T06:40:21;20.10;50.50
45785;DHT22;31489;51.404;5.474;2022-09-01T06:42:50;20.20;50.20
45785;DHT22;31489;51.404;5.474;2022-09-01T06:45:18;20.20;50.50
45785;DHT22;31489;51.404;5.474;2022-09-01T06:47:45;20.20;50.20
45785;DHT22;31489;51.404;5.474;2022-09-01T06:50:14;20.30;49.60
45785;DHT22;31489;51.404;5.474;2022-09-01T06:52:41;20.30;50.10
45785;DHT22;31489;51.404;5.474;2022-09-01T06:55:12;20.30;50.40
45785;DHT22;31489;51.404;5.474;2022-09-01T06:57:39;20.40;50.30
45785;DHT22;31489;51.404;5.474;2022-09-01T07:00:11;20.40;50.30
45785;DHT22;31489;51.404;5.474;2022-09-01T07:02:44;20.50;50.90
45785;DHT22;31489;51.404;5.474;2022-09-01T07:05:10;20.50;50.30
45785;DHT22;31489;51.404;5.474;2022-09-01T07:07:36;20.60;50.90
45785;DHT22;31489;51.404;5.474;2022-09-01T07:10:04;20.60;50.30
45785;DHT22;31489;51.404;5.474;2022-09-01T07:12:32;20.60;50.60
45785;DHT22;31489;51.404;5.474;2022-09-01T07:14:58;20.60;50.30
45785;DHT22;31489;51.404;5.474;2022-09-01T07:17:24;20.70;50.00
45785;DHT22;31489;51.404;5.474;2022-09-01T07:19:50;20.80;49.90
45785;DHT22;31489;51.404;5.474;2022-09-01T07:22:18;20.80;50.00
45785;DHT22;31489;51.404;5.474;2022-09-01T07:24:43;20.80;50.10
45785;DHT22;31489;51.404;5.474;2022-09-01T07:27:10;20.90;50.10
45785;DHT22;31489;51.404;5.474;2022-09-01T07:29:36;20.90;49.80
45785;DHT22;31489;51.404;5.474;2022-09-01T07:32:03;21.00;49.70
45785;DHT22;31489;51.404;5.474;2022-09-01T07:34:30;21.10;49.70
45785;DHT22;31489;51.404;5.474;2022-09-01T07:36:57;21.10;49.60
45785;DHT22;31489;51.404;5.474;2022-09-01T07:39:24;21.20;49.80
45785;DHT22;31489;51.404;5.474;2022-09-01T07:41:52;21.20;49.50
45785;DHT22;31489;51.404;5.474;2022-09-01T07:44:22;21.30;49.60
45785;DHT22;31489;51.404;5.474;2022-09-01T07:46:48;21.40;49.90
45785;DHT22;31489;51.404;5.474;2022-09-01T07:49:16;21.40;49.50
45785;DHT22;31489;51.404;5.474;2022-09-01T07:51:42;21.50;49.50
45785;DHT22;31489;51.404;5.474;2022-09-01T07:54:08;21.50;49.30
45785;DHT22;31489;51.404;5.474;2022-09-01T07:56:38;21.60;49.30
45785;DHT22;31489;51.404;5.474;2022-09-01T07:59:04;21.70;49.60
45785;DHT22;31489;51.404;5.474;2022-09-01T08:01:32;21.70;49.60
45785;DHT22;31489;51.404;5.474;2022-09-01T08:03:59;21.80;49.60
45785;DHT22;31489;51.404;5.474;2022-09-01T08:06:28;21.90;49.90
45785;DHT22;31489;51.404;5.474;2022-09-01T08:08:55;21.90;49.50
45785;DHT22;31489;51.404;5.474;2022-09-01T08:11:27;22.00;49.70
45785;DHT22;31489;51.404;5.474;2022-09-01T08:13:54;22.10;49.10
45785;DHT22;31489;51.404;5.474;2022-09-01T08:16:24;22.10;49.40
45785;DHT22;31489;51.404;5.474;2022-09-01T08:18:50;22.20;49.70
45785;DHT22;31489;51.404;5.474;2022-09-01T08:21:17;22.30;49.90
45785;DHT22;31489;51.404;5.474;2022-09-01T08:23:48;22.40;49.70
45785;DHT22;31489;51.404;5.474;2022-09-01T08:26:16;22.40;49.80
45785;DHT22;31489;51.404;5.474;2022-09-01T08:28:42;22.50;49.20
45785;DHT22;31489;51.404;5.474;2022-09-01T08:31:10;22.60;49.70
45785;DHT22;31489;51.404;5.474;2022-09-01T08:33:37;22.70;49.30
45785;DHT22;31489;51.404;5.474;2022-09-01T08:36:03;22.80;49.30
45785;DHT22;31489;51.404;5.474;2022-09-01T08:38:31;22.90;49.20
45785;DHT22;31489;51.404;5.474;2022-09-01T08:40:57;22.90;49.10
45785;DHT22;31489;51.404;5.474;2022-09-01T08:43:36;23.00;49.20
45785;DHT22;31489;51.404;5.474;2022-09-01T08:48:51;23.20;49.40
45785;DHT22;31489;51.404;5.474;2022-09-01T08:51:36;23.20;49.30
45785;DHT22;31489;51.404;5.474;2022-09-01T08:54:25;23.30;48.90
45785;DHT22;31489;51.404;5.474;2022-09-01T08:56:56;23.40;48.60
45785;DHT22;31489;51.404;5.474;2022-09-01T08:59:22;23.50;49.50
45785;DHT22;31489;51.404;5.474;2022-09-01T09:13:02;23.90;48.90
45785;DHT22;31489;51.404;5.474;2022-09-01T09:15:42;24.00;48.90
45785;DHT22;31489;51.404;5.474;2022-09-01T09:18:34;24.10;48.50
45785;DHT22;31489;51.404;5.474;2022-09-01T09:21:13;24.20;48.00
45785;DHT22;31489;51.404;5.474;2022-09-01T09:23:45;24.30;47.30
45785;DHT22;31489;51.404;5.474;2022-09-01T09:26:11;24.40;47.30
45785;DHT22;31489;51.404;5.474;2022-09-01T09:28:37;24.40;47.50
45785;DHT22;31489;51.404;5.474;2022-09-01T09:31:33;24.50;47.20
45785;DHT22;31489;51.404;5.474;2022-09-01T09:34:00;24.70;46.90
45785;DHT22;31489;51.404;5.474;2022-09-01T09:36:32;24.70;46.50
45785;DHT22;31489;51.404;5.474;2022-09-01T09:39:17;24.80;46.30
45785;DHT22;31489;51.404;5.474;2022-09-01T09:41:59;24.90;46.10
45785;DHT22;31489;51.404;5.474;2022-09-01T09:44:30;25.00;46.00
45785;DHT22;31489;51.404;5.474;2022-09-01T09:46:57;25.00;46.50
45785;DHT22;31489;51.404;5.474;2022-09-01T09:49:28;25.10;46.70
45785;DHT22;31489;51.404;5.474;2022-09-01T09:52:14;25.20;45.40
45785;DHT22;31489;51.404;5.474;2022-09-01T09:55:04;25.40;45.10
45785;DHT22;31489;51.404;5.474;2022-09-01T09:57:31;25.40;44.80
45785;DHT22;31489;51.404;5.474;2022-09-01T10:00:22;25.50;44.80
45785;DHT22;31489;51.404;5.474;2022-09-01T10:02:55;25.60;43.10
45785;DHT22;31489;51.404;5.474;2022-09-01T10:07:53;25.80;43.40
45785;DHT22;31489;51.404;5.474;2022-09-01T10:12:56;26.00;43.20
45785;DHT22;31489;51.404;5.474;2022-09-01T10:15:27;26.00;43.10
45785;DHT22;31489;51.404;5.474;2022-09-01T10:18:09;26.10;43.00
45785;DHT22;31489;51.404;5.474;2022-09-01T10:20:39;26.20;42.40
45785;DHT22;31489;51.404;5.474;2022-09-01T10:23:08;26.30;43.80
45785;DHT22;31489;51.404;5.474;2022-09-01T10:25:36;26.40;42.70
45785;DHT22;31489;51.404;5.474;2022-09-01T10:28:15;26.50;41.70
45785;DHT22;31489;51.404;5.474;2022-09-01T10:30:44;26.60;41.70
45785;DHT22;31489;51.404;5.474;2022-09-01T10:33:11;26.80;41.80
45785;DHT22;31489;51.404;5.474;2022-09-01T10:35:43;27.20;42.80
45785;DHT22;31489;51.404;5.474;2022-09-01T10:38:24;27.60;40.50
45785;DHT22;31489;51.404;5.474;2022-09-01T10:40:52;28.20;40.90
45785;DHT22;31489;51.404;5.474;2022-09-01T10:48:35;30.00;40.30
45785;DHT22;31489;51.404;5.474;2022-09-01T10:53:39;31.20;38.20
45785;DHT22;31489;51.404;5.474;2022-09-01T10:56:45;31.70;37.00
45785;DHT22;31489;51.404;5.474;2022-09-01T11:07:02;33.40;34.70
45785;DHT22;31489;51.404;5.474;2022-09-01T11:09:31;33.70;33.60
45785;DHT22;31489;51.404;5.474;2022-09-01T11:14:27;34.30;33.40
45785;DHT22;31489;51.404;5.474;2022-09-01T11:17:19;34.50;33.10
45785;DHT22;31489;51.404;5.474;2022-09-01T11:22:41;35.00;32.20
45785;DHT22;31489;51.404;5.474;2022-09-01T11:28:34;35.30;30.20
45785;DHT22;31489;51.404;5.474;2022-09-01T11:36:14;35.50;29.80
45785;DHT22;31489;51.404;5.474;2022-09-01T11:38:49;35.50;29.70
45785;DHT22;31489;51.404;5.474;2022-09-01T11:43:59;35.60;29.50
45785;DHT22;31489;51.404;5.474;2022-09-01T11:46:34;35.60;29.40
45785;DHT22;31489;51.404;5.474;2022-09-01T11:49:06;35.60;29.40
45785;DHT22;31489;51.404;5.474;2022-09-01T11:52:00;35.70;31.50
45785;DHT22;31489;51.404;5.474;2022-09-01T11:54:28;35.70;30.50
45785;DHT22;31489;51.404;5.474;2022-09-01T11:56:54;35.60;29.40
45785;DHT22;31489;51.404;5.474;2022-09-01T11:59:32;35.60;29.00
45785;DHT22;31489;51.404;5.474;2022-09-01T12:01:59;35.40;28.80
45785;DHT22;31489;51.404;5.474;2022-09-01T12:04:32;35.30;28.80
45785;DHT22;31489;51.404;5.474;2022-09-01T12:07:03;35.20;28.60
45785;DHT22;31489;51.404;5.474;2022-09-01T12:09:41;35.10;28.40
45785;DHT22;31489;51.404;5.474;2022-09-01T12:12:32;34.90;28.40
45785;DHT22;31489;51.404;5.474;2022-09-01T12:17:44;34.70;29.00
45785;DHT22;31489;51.404;5.474;2022-09-01T12:20:22;34.50;29.10
45785;DHT22;31489;51.404;5.474;2022-09-01T12:22:52;34.40;28.50
45785;DHT22;31489;51.404;5.474;2022-09-01T12:25:31;34.30;28.20
45785;DHT22;31489;51.404;5.474;2022-09-01T12:28:04;34.20;28.30
45785;DHT22;31489;51.404;5.474;2022-09-01T12:30:32;34.10;28.70
45785;DHT22;31489;51.404;5.474;2022-09-01T12:33:02;34.20;30.00
45785;DHT22;31489;51.404;5.474;2022-09-01T12:35:28;34.10;28.60
45785;DHT22;31489;51.404;5.474;2022-09-01T12:40:46;34.00;29.00
45785;DHT22;31489;51.404;5.474;2022-09-01T12:43:32;34.00;28.30
45785;DHT22;31489;51.404;5.474;2022-09-01T12:45:57;34.00;29.00
45785;DHT22;31489;51.404;5.474;2022-09-01T12:48:35;34.00;28.70
45785;DHT22;31489;51.404;5.474;2022-09-01T12:51:14;34.00;28.30
45785;DHT22;31489;51.404;5.474;2022-09-01T12:53:53;34.00;28.50
45785;DHT22;31489;51.404;5.474;2022-09-01T12:56:32;34.10;28.40
45785;DHT22;31489;51.404;5.474;2022-09-01T12:59:09;34.10;28.50
45785;DHT22;31489;51.404;5.474;2022-09-01T13:01:37;34.20;27.90
45785;DHT22;31489;51.404;5.474;2022-09-01T13:06:46;34.20;27.60
45785;DHT22;31489;51.404;5.474;2022-09-01T13:09:11;34.20;27.80
45785;DHT22;31489;51.404;5.474;2022-09-01T13:11:40;34.20;27.60
45785;DHT22;31489;51.404;5.474;2022-09-01T13:14:07;34.10;27.30
45785;DHT22;31489;51.404;5.474;2022-09-01T13:16:33;34.20;27.50
45785;DHT22;31489;51.404;5.474;2022-09-01T13:19:00;34.20;27.80
45785;DHT22;31489;51.404;5.474;2022-09-01T13:21:26;34.20;27.60
45785;DHT22;31489;51.404;5.474;2022-09-01T13:23:52;34.30;27.80
45785;DHT22;31489;51.404;5.474;2022-09-01T13:26:18;34.30;27.20
45785;DHT22;31489;51.404;5.474;2022-09-01T13:28:43;34.30;27.30
45785;DHT22;31489;51.404;5.474;2022-09-01T13:31:10;34.40;27.30
45785;DHT22;31489;51.404;5.474;2022-09-01T13:33:36;34.40;27.70
45785;DHT22;31489;51.404;5.474;2022-09-01T13:36:03;34.40;27.60
45785;DHT22;31489;51.404;5.474;2022-09-01T13:38:29;34.40;26.80
45785;DHT22;31489;51.404;5.474;2022-09-01T13:40:57;34.50;27.40
45785;DHT22;31489;51.404;5.474;2022-09-01T13:43:23;34.50;27.40
45785;DHT22;31489;51.404;5.474;2022-09-01T13:45:52;34.50;27.10
45785;DHT22;31489;51.404;5.474;2022-09-01T13:48:18;34.60;27.20
45785;DHT22;31489;51.404;5.474;2022-09-01T13:50:48;34.60;27.40
45785;DHT22;31489;51.404;5.474;2022-09-01T13:53:15;34.70;26.80
45785;DHT22;31489;51.404;5.474;2022-09-01T13:55:41;34.80;27.20
45785;DHT22;31489;51.404;5.474;2022-09-01T13:58:07;34.80;27.40
45785;DHT22;31489;51.404;5.474;2022-09-01T14:00:36;34.90;26.70
45785;DHT22;31489;51.404;5.474;2022-09-01T14:03:06;34.90;26.60
45785;DHT22;31489;51.404;5.474;2022-09-01T14:05:35;35.00;26.20
45785;DHT22;31489;51.404;5.474;2022-09-01T14:08:16;35.00;27.00
45785;DHT22;31489;51.404;5.474;2022-09-01T14:10:56;35.00;27.80
45785;DHT22;31489;51.404;5.474;2022-09-01T14:13:23;35.00;27.20
45785;DHT22;31489;51.404;5.474;2022-09-01T14:15:49;35.10;28.30
45785;DHT22;31489;51.404;5.474;2022-09-01T14:18:16;35.10;27.30
45785;DHT22;31489;51.404;5.474;2022-09-01T14:20:44;35.10;27.10
45785;DHT22;31489;51.404;5.474;2022-09-01T14:23:11;35.10;27.30
45785;DHT22;31489;51.404;5.474;2022-09-01T14:25:48;35.10;26.90
45785;DHT22;31489;51.404;5.474;2022-09-01T14:28:15;35.10;27.70
45785;DHT22;31489;51.404;5.474;2022-09-01T14:30:41;35.10;27.00
45785;DHT22;31489;51.404;5.474;2022-09-01T14:33:08;35.10;27.60
45785;DHT22;31489;51.404;5.474;2022-09-01T14:35:37;35.20;27.40
45785;DHT22;31489;51.404;5.474;2022-09-01T14:38:03;35.10;27.00
45785;DHT22;31489;51.404;5.474;2022-09-01T14:40:34;35.20;26.90
45785;DHT22;31489;51.404;5.474;2022-09-01T14:43:02;35.20;27.20
45785;DHT22;31489;51.404;5.474;2022-09-01T14:45:29;35.10;27.30
45785;DHT22;31489;51.404;5.474;2022-09-01T14:47:58;35.10;26.80
45785;DHT22;31489;51.404;5.474;2022-09-01T14:50:26;35.10;26.70
45785;DHT22;31489;51.404;5.474;2022-09-01T14:52:54;35.10;26.60
45785;DHT22;31489;51.404;5.474;2022-09-01T14:55:22;35.10;26.30
45785;DHT22;31489;51.404;5.474;2022-09-01T14:57:49;35.00;26.70
45785;DHT22;31489;51.404;5.474;2022-09-01T15:00:15;35.00;26.70
45785;DHT22;31489;51.404;5.474;2022-09-01T15:02:42;35.00;26.30
45785;DHT22;31489;51.404;5.474;2022-09-01T15:05:08;35.00;26.20
45785;DHT22;31489;51.404;5.474;2022-09-01T15:07:34;34.90;26.50
45785;DHT22;31489;51.404;5.474;2022-09-01T15:10:00;34.90;26.60
45785;DHT22;31489;51.404;5.474;2022-09-01T15:12:26;34.80;26.30
45785;DHT22;31489;51.404;5.474;2022-09-01T15:14:57;34.70;26.10
45785;DHT22;31489;51.404;5.474;2022-09-01T15:17:23;34.60;26.70
45785;DHT22;31489;51.404;5.474;2022-09-01T15:19:49;34.50;26.80
45785;DHT22;31489;51.404;5.474;2022-09-01T15:22:14;34.50;26.60
45785;DHT22;31489;51.404;5.474;2022-09-01T15:24:41;34.40;26.70
45785;DHT22;31489;51.404;5.474;2022-09-01T15:27:06;34.30;26.40
45785;DHT22;31489;51.404;5.474;2022-09-01T15:29:32;34.30;26.90
45785;DHT22;31489;51.404;5.474;2022-09-01T15:31:59;34.20;26.60
45785;DHT22;31489;51.404;5.474;2022-09-01T15:34:28;34.00;26.80
45785;DHT22;31489;51.404;5.474;2022-09-01T15:36:53;33.90;26.80
45785;DHT22;31489;51.404;5.474;2022-09-01T15:39:19;33.90;27.30
45785;DHT22;31489;51.404;5.474;2022-09-01T15:41:45;33.80;26.80
45785;DHT22;31489;51.404;5.474;2022-09-01T15:44:11;33.70;26.70
45785;DHT22;31489;51.404;5.474;2022-09-01T15:46:37;33.60;26.70
45785;DHT22;31489;51.404;5.474;2022-09-01T15:49:08;33.50;26.90
45785;DHT22;31489;51.404;5.474;2022-09-01T15:51:35;33.50;26.90
45785;DHT22;31489;51.404;5.474;2022-09-01T15:54:10;33.30;27.20
45785;DHT22;31489;51.404;5.474;2022-09-01T15:56:36;33.20;27.90
45785;DHT22;31489;51.404;5.474;2022-09-01T15:59:04;33.20;27.70
45785;DHT22;31489;51.404;5.474;2022-09-01T16:01:39;33.10;27.50
45785;DHT22;31489;51.404;5.474;2022-09-01T16:04:06;33.00;27.20
45785;DHT22;31489;51.404;5.474;2022-09-01T16:06:32;33.00;27.80
45785;DHT22;31489;51.404;5.474;2022-09-01T16:08:58;32.90;27.60
45785;DHT22;31489;51.404;5.474;2022-09-01T16:11:24;32.80;27.60
45785;DHT22;31489;51.404;5.474;2022-09-01T16:13:51;32.70;28.20
45785;DHT22;31489;51.404;5.474;2022-09-01T16:16:41;32.60;27.70
45785;DHT22;31489;51.404;5.474;2022-09-01T16:24:36;32.30;27.70
45785;DHT22;31489;51.404;5.474;2022-09-01T16:27:07;32.20;27.90
45785;DHT22;31489;51.404;5.474;2022-09-01T16:29:41;32.10;27.70
45785;DHT22;31489;51.404;5.474;2022-09-01T16:32:08;32.00;27.50
45785;DHT22;31489;51.404;5.474;2022-09-01T16:34:33;32.00;28.30
45785;DHT22;31489;51.404;5.474;2022-09-01T16:37:51;32.00;29.20
45785;DHT22;31489;51.404;5.474;2022-09-01T16:45:36;31.80;29.30
45785;DHT22;31489;51.404;5.474;2022-09-01T16:48:18;31.70;29.10
45785;DHT22;31489;51.404;5.474;2022-09-01T16:56:10;31.60;29.80
45785;DHT22;31489;51.404;5.474;2022-09-01T17:01:43;31.40;29.70
45785;DHT22;31489;51.404;5.474;2022-09-01T17:04:20;31.40;29.90
45785;DHT22;31489;51.404;5.474;2022-09-01T17:09:34;31.20;30.00